地図

経路データ

SID SEASON NUMBER BASIN SUBBASIN NAME ISO_TIME NATURE LAT LON WMO_WIND WMO_PRES WMO_AGENCY TRACK_TYPE DIST2LAND LANDFALL IFLAG USA_AGENCY USA_ATCF_ID USA_LAT USA_LON USA_RECORD USA_STATUS USA_WIND USA_PRES USA_SSHS USA_R34_NE USA_R34_SE USA_R34_SW USA_R34_NW USA_R50_NE USA_R50_SE USA_R50_SW USA_R50_NW USA_R64_NE USA_R64_SE USA_R64_SW USA_R64_NW USA_POCI USA_ROCI USA_RMW USA_EYE TOKYO_LAT TOKYO_LON TOKYO_GRADE TOKYO_WIND TOKYO_PRES TOKYO_R50_DIR TOKYO_R50_LONG TOKYO_R50_SHORT TOKYO_R30_DIR TOKYO_R30_LONG TOKYO_R30_SHORT TOKYO_LAND CMA_LAT CMA_LON CMA_CAT CMA_WIND CMA_PRES HKO_LAT HKO_LON HKO_CAT HKO_WIND HKO_PRES NEWDELHI_LAT NEWDELHI_LON NEWDELHI_GRADE NEWDELHI_WIND NEWDELHI_PRES NEWDELHI_CI NEWDELHI_DP NEWDELHI_POCI REUNION_LAT REUNION_LON REUNION_TYPE REUNION_WIND REUNION_PRES REUNION_TNUM REUNION_CI REUNION_RMW REUNION_R34_NE REUNION_R34_SE REUNION_R34_SW REUNION_R34_NW REUNION_R50_NE REUNION_R50_SE REUNION_R50_SW REUNION_R50_NW REUNION_R64_NE REUNION_R64_SE REUNION_R64_SW REUNION_R64_NW BOM_LAT BOM_LON BOM_TYPE BOM_WIND BOM_PRES BOM_TNUM BOM_CI BOM_RMW BOM_R34_NE BOM_R34_SE BOM_R34_SW BOM_R34_NW BOM_R50_NE BOM_R50_SE BOM_R50_SW BOM_R50_NW BOM_R64_NE BOM_R64_SE BOM_R64_SW BOM_R64_NW BOM_ROCI BOM_POCI BOM_EYE BOM_POS_METHOD BOM_PRES_METHOD NADI_LAT NADI_LON NADI_CAT NADI_WIND NADI_PRES WELLINGTON_LAT WELLINGTON_LON WELLINGTON_WIND WELLINGTON_PRES DS824_LAT DS824_LON DS824_STAGE DS824_WIND DS824_PRES TD9636_LAT TD9636_LON TD9636_STAGE TD9636_WIND TD9636_PRES TD9635_LAT TD9635_LON TD9635_WIND TD9635_PRES TD9635_ROCI NEUMANN_LAT NEUMANN_LON NEUMANN_CLASS NEUMANN_WIND NEUMANN_PRES MLC_LAT MLC_LON MLC_CLASS MLC_WIND MLC_PRES USA_GUST BOM_GUST BOM_GUST_PER REUNION_GUST REUNION_GUST_PER USA_SEAHGT USA_SEARAD_NE USA_SEARAD_SE USA_SEARAD_SW USA_SEARAD_NW STORM_SPEED STORM_DIR
1863141S07089 1863 12 SI MM NOT_NAMED 1863-05-21 06:00:00 NR -7.00000 89.1000 main 1238 1238 _____O________ -1 -7.00000 89.1000 99 9.90000 3 260
1863141S07089 1863 12 SI MM NOT_NAMED 1863-05-21 09:00:00 NR -7.03023 88.9283 main 1257 1257 _____P________ -1 -7.03023 88.9283 99 3 260
1863141S07089 1863 12 SI MM NOT_NAMED 1863-05-21 12:00:00 NR -7.06111 88.7563 main 1272 1272 _____P________ -1 -7.06111 88.7563 99 3 260
1863141S07089 1863 12 SI MM NOT_NAMED 1863-05-21 15:00:00 NR -7.09336 88.5836 main 1291 1291 _____P________ -1 -7.09336 88.5836 99 4 259
1863141S07089 1863 12 SI MM NOT_NAMED 1863-05-21 18:00:00 NR -7.12768 88.4100 main 1310 1310 _____P________ -1 -7.12768 88.4100 99 4 258
1863141S07089 1863 12 SI MM NOT_NAMED 1863-05-21 21:00:00 NR -7.16480 88.2351 main 1335 1335 _____P________ -1 -7.16480 88.2351 99 4 257
1863141S07089 1863 12 SI MM NOT_NAMED 1863-05-22 00:00:00 NR -7.20541 88.0587 main 1345 1345 _____P________ -1 -7.20541 88.0587 99 4 256
1863141S07089 1863 12 SI MM NOT_NAMED 1863-05-22 03:00:00 NR -7.25024 87.8805 main 1369 1369 _____P________ -1 -7.25024 87.8805 99 4 255
1863141S07089 1863 12 SI MM NOT_NAMED 1863-05-22 06:00:00 NR -7.30000 87.7000 main 1389 1389 _____O________ -1 -7.30000 87.7000 99 9.90000 4 254
1863141S07089 1863 12 SI MM NOT_NAMED 1863-05-22 09:00:00 NR -7.35508 87.5172 main 1413 1413 _____P________ -1 -7.35508 87.5172 99 4 253
1863141S07089 1863 12 SI MM NOT_NAMED 1863-05-22 12:00:00 NR -7.41462 87.3322 main 1433 1433 _____P________ -1 -7.41462 87.3322 99 4 252
1863141S07089 1863 12 SI MM NOT_NAMED 1863-05-22 15:00:00 NR -7.47746 87.1455 main 1458 1458 _____P________ -1 -7.47746 87.1455 99 4 251
1863141S07089 1863 12 SI MM NOT_NAMED 1863-05-22 18:00:00 NR -7.54241 86.9575 main 1467 1467 _____P________ -1 -7.54241 86.9575 99 4 251
1863141S07089 1863 12 SI MM NOT_NAMED 1863-05-22 21:00:00 NR -7.60831 86.7686 main 1492 1492 _____P________ -1 -7.60831 86.7686 99 4 251
1863141S07089 1863 12 SI MM NOT_NAMED 1863-05-23 00:00:00 NR -7.67399 86.5791 main 1517 1517 _____P________ -1 -7.67399 86.5791 99 4 251
1863141S07089 1863 12 SI MM NOT_NAMED 1863-05-23 03:00:00 NR -7.73828 86.3894 main 1536 1536 _____P________ -1 -7.73828 86.3894 99 4 251
1863141S07089 1863 12 SI MM NOT_NAMED 1863-05-23 06:00:00 NR -7.80000 86.2000 main 1561 1561 _____O________ -1 -7.80000 86.2000 99 9.90000 3 256
1863141S07089 1863 12 SI MM NOT_NAMED 1863-05-23 09:00:00 NR -7.81142 86.1009 main 1571 1571 _____P________ -1 -7.81142 86.1009 99 2 265
1863141S07089 1863 12 SI MM NOT_NAMED 1863-05-23 12:00:00 NR -7.81551 86.0127 main 1581 1581 _____P________ -1 -7.81551 86.0127 99 2 267
1863141S07089 1863 12 SI MM NOT_NAMED 1863-05-23 15:00:00 NR -7.82149 85.9174 main 1590 1590 _____P________ -1 -7.82149 85.9174 99 2 264
1863141S07089 1863 12 SI MM NOT_NAMED 1863-05-23 18:00:00 NR -7.83853 85.7969 main 1600 1600 _____P________ -1 -7.83853 85.7969 99 3 259
1863141S07089 1863 12 SI MM NOT_NAMED 1863-05-23 21:00:00 NR -7.87579 85.6331 main 1625 1625 _____P________ -1 -7.87579 85.6331 99 4 255
1863141S07089 1863 12 SI MM NOT_NAMED 1863-05-24 00:00:00 NR -7.94240 85.4079 main 1635 1635 _____P________ -1 -7.94240 85.4079 99 6 252
1863141S07089 1863 12 SI MM NOT_NAMED 1863-05-24 03:00:00 NR -8.04746 85.1030 main 1635 1635 _____P________ -1 -8.04746 85.1030 99 7 250
1863141S07089 1863 12 SI MM NOT_NAMED 1863-05-24 06:00:00 NR -8.20000 84.7000 main 1644 1641 _____O________ -1 -8.20000 84.7000 99 9.90000 11 249
1863141S07089 1863 12 SI MM NOT_NAMED 1863-05-24 09:00:00 NR -8.45904 84.0444 main 1657 1652 _____P________ -1 -8.45904 84.0444 99 15 248
1863141S07089 1863 12 SI MM NOT_NAMED 1863-05-24 12:00:00 NR -8.76845 83.2762 main 1674 1670 _____P________ -1 -8.76845 83.2762 99 17 248
1863141S07089 1863 12 SI MM NOT_NAMED 1863-05-24 15:00:00 NR -9.11219 82.4341 main 1692 1692 _____P________ -1 -9.11219 82.4341 99 18 247
1863141S07089 1863 12 SI MM NOT_NAMED 1863-05-24 18:00:00 NR -9.47433 81.5574 main 1729 1727 _____P________ -1 -9.47433 81.5574 99 19 247
1863141S07089 1863 12 SI MM NOT_NAMED 1863-05-24 21:00:00 NR -9.83922 80.6856 main 1759 1759 _____P________ -1 -9.83922 80.6856 99 18 247
1863141S07089 1863 12 SI MM NOT_NAMED 1863-05-25 00:00:00 NR -10.1916 79.8587 main 1805 1805 _____P________ -1 -10.1916 79.8587 99 17 246
1863141S07089 1863 12 SI MM NOT_NAMED 1863-05-25 03:00:00 NR -10.5166 79.1168 main 1845 1845 _____P________ -1 -10.5166 79.1168 99 15 246
1863141S07089 1863 12 SI MM NOT_NAMED 1863-05-25 06:00:00 NR -10.8000 78.5000 reunion main 1885 1885 _____O________ -1 -10.8000 78.5000 99 9.90000 11 244
1863141S07089 1863 12 SI MM NOT_NAMED 1863-05-25 09:00:00 NR -10.9922 78.1302 main 1913 1913 _____P________ -1 -10.9922 78.1302 99 7 240
1863141S07089 1863 12 SI MM NOT_NAMED 1863-05-25 12:00:00 NR -11.1502 77.8729 main 1939 1939 _____P________ -1 -11.1502 77.8729 99 5 235
1863141S07089 1863 12 SI MM NOT_NAMED 1863-05-25 15:00:00 NR -11.2798 77.7103 main 1953 1953 _____P________ -1 -11.2798 77.7103 99 3 226
1863141S07089 1863 12 SI MM NOT_NAMED 1863-05-25 18:00:00 NR -11.3867 77.6248 main 1966 1966 _____P________ -1 -11.3867 77.6248 99 2 210
1863141S07089 1863 12 SI MM NOT_NAMED 1863-05-25 21:00:00 NR -11.4767 77.5987 main 1977 1977 _____P________ -1 -11.4767 77.5987 99 2 0
1863141S07089 1863 12 SI MM NOT_NAMED 1863-05-26 00:00:00 NR -11.5552 77.6143 main 1988 1986 _____P________ -1 -11.5552 77.6143 99 2 158
1863141S07089 1863 12 SI MM NOT_NAMED 1863-05-26 03:00:00 NR -11.6278 77.6540 main 1986 1986 _____P________ -1 -11.6278 77.6540 99 2 153
1863141S07089 1863 12 SI MM NOT_NAMED 1863-05-26 06:00:00 NR -11.7000 77.7000 reunion main 1997 1997 _____O________ -1 -11.7000 77.7000 99 9.90000 2 0
1863141S07089 1863 12 SI MM NOT_NAMED 1863-05-26 09:00:00 NR -11.7967 77.6648 main 2009 2009 _____P________ -1 -11.7967 77.6648 99 2 197
1863141S07089 1863 12 SI MM NOT_NAMED 1863-05-26 12:00:00 NR -11.8893 77.6480 main 2021 2021 _____P________ -1 -11.8893 77.6480 99 2 0
1863141S07089 1863 12 SI MM NOT_NAMED 1863-05-26 15:00:00 NR -11.9784 77.6471 main 2032 2031 _____P________ -1 -11.9784 77.6471 99 2 173
1863141S07089 1863 12 SI MM NOT_NAMED 1863-05-26 18:00:00 NR -12.0649 77.6598 main 2042 2042 _____P________ -1 -12.0649 77.6598 99 2 165
1863141S07089 1863 12 SI MM NOT_NAMED 1863-05-26 21:00:00 NR -12.1495 77.6838 main 2042 2042 _____P________ -1 -12.1495 77.6838 99 2 162
1863141S07089 1863 12 SI MM NOT_NAMED 1863-05-27 00:00:00 NR -12.2331 77.7168 main 2053 2053 _____P________ -1 -12.2331 77.7168 99 2 157
1863141S07089 1863 12 SI MM NOT_NAMED 1863-05-27 03:00:00 NR -12.3163 77.7563 main 2062 2062 _____P________ -1 -12.3163 77.7563 99 2 154
1863141S07089 1863 12 SI MM NOT_NAMED 1863-05-27 06:00:00 NR -12.4000 77.8000 reunion main 2073 2073 _____O________ -1 -12.4000 77.8000 99 9.90000 2 168
1863141S07089 1863 12 SI MM NOT_NAMED 1863-05-27 09:00:00 NR -12.4663 77.8020 main 2084 2084 _____P________ -1 -12.4663 77.8020 99 1 172
1863141S07089 1863 12 SI MM NOT_NAMED 1863-05-27 12:00:00 NR -12.5299 77.8062 main 2084 2084 _____P________ -1 -12.5299 77.8062 99 1 170
1863141S07089 1863 12 SI MM NOT_NAMED 1863-05-27 15:00:00 NR -12.5953 77.8183 main 2095 2095 _____P________ -1 -12.5953 77.8183 99 1 164
1863141S07089 1863 12 SI MM NOT_NAMED 1863-05-27 18:00:00 NR -12.6668 77.8440 main 2106 2105 _____P________ -1 -12.6668 77.8440 99 2 156
1863141S07089 1863 12 SI MM NOT_NAMED 1863-05-27 21:00:00 NR -12.7486 77.8893 main 2105 2105 _____P________ -1 -12.7486 77.8893 99 2 148
1863141S07089 1863 12 SI MM NOT_NAMED 1863-05-28 00:00:00 NR -12.8453 77.9598 main 2114 2114 _____P________ -1 -12.8453 77.9598 99 3 142
1863141S07089 1863 12 SI MM NOT_NAMED 1863-05-28 03:00:00 NR -12.9609 78.0614 main 2135 2135 _____P________ -1 -12.9609 78.0614 99 3 138
1863141S07089 1863 12 SI MM NOT_NAMED 1863-05-28 06:00:00 NR -13.1000 78.2000 reunion main 2145 2145 _____O________ -1 -13.1000 78.2000 99 9.90000 4 135
1863141S07089 1863 12 SI MM NOT_NAMED 1863-05-28 09:00:00 NR -13.2798 78.3833 main 2164 2163 _____P________ -1 -13.2798 78.3833 99 6 134
1863141S07089 1863 12 SI MM NOT_NAMED 1863-05-28 12:00:00 NR -13.4834 78.6037 main 2184 2183 _____P________ -1 -13.4834 78.6037 99 6 133
1863141S07089 1863 12 SI MM NOT_NAMED 1863-05-28 15:00:00 NR -13.7055 78.8558 main 2203 2203 _____P________ -1 -13.7055 78.8558 99 7 132
1863141S07089 1863 12 SI MM NOT_NAMED 1863-05-28 18:00:00 NR -13.9404 79.1341 main 2224 2224 _____P________ -1 -13.9404 79.1341 99 7 130
1863141S07089 1863 12 SI MM NOT_NAMED 1863-05-28 21:00:00 NR -14.1828 79.4333 main 2255 2255 _____P________ -1 -14.1828 79.4333 99 8 129
1863141S07089 1863 12 SI MM NOT_NAMED 1863-05-29 00:00:00 NR -14.4271 79.7477 main 2276 2275 _____P________ -1 -14.4271 79.7477 99 8 128
1863141S07089 1863 12 SI MM NOT_NAMED 1863-05-29 03:00:00 NR -14.6680 80.0718 main 2308 2308 _____P________ -1 -14.6680 80.0718 99 8 127
1863141S07089 1863 12 SI MM NOT_NAMED 1863-05-29 06:00:00 NR -14.9000 80.4000 main 2330 2330 _____O________ -1 -14.9000 80.4000 99 9.90000 8 125
1863141S07089 1863 12 SI MM NOT_NAMED 1863-05-29 09:00:00 NR -15.1190 80.7277 main 2352 2352 _____P________ -1 -15.1190 80.7277 99 8 124
1863141S07089 1863 12 SI MM NOT_NAMED 1863-05-29 12:00:00 NR -15.3256 81.0541 main 2375 2375 _____P________ -1 -15.3256 81.0541 99 7 123
1863141S07089 1863 12 SI MM NOT_NAMED 1863-05-29 15:00:00 NR -15.5215 81.3795 main 2398 2398 _____P________ -1 -15.5215 81.3795 99 7 121
1863141S07089 1863 12 SI MM NOT_NAMED 1863-05-29 18:00:00 NR -15.7084 81.7041 main 2422 2422 _____P________ -1 -15.7084 81.7041 99 7 120
1863141S07089 1863 12 SI MM NOT_NAMED 1863-05-29 21:00:00 NR -15.8880 82.0282 main 2442 2424 _____P________ -1 -15.8880 82.0282 99 7 120
1863141S07089 1863 12 SI MM NOT_NAMED 1863-05-30 00:00:00 NR -16.0620 82.3521 main 2423 2406 _____P________ -1 -16.0620 82.3521 99 7 119
1863141S07089 1863 12 SI MM NOT_NAMED 1863-05-30 03:00:00 NR -16.2321 82.6759 main 2406 2397 _____P________ -1 -16.2321 82.6759 99 7 119
1863141S07089 1863 12 SI MM NOT_NAMED 1863-05-30 06:00:00 NR -16.4000 83.0000 main 2397 _____O________ -1 -16.4000 83.0000 99 9.90000 7 118

IBTrACS Databaseについて

本データベースは、米国NOAAが公開する1842年以降の世界の熱帯低気圧のベストトラックデータアーカイブInternational Best Track Archive for Climate Stewardship (IBTrACS)を、ウェブで閲覧しやすい形式に変換したものです。

最終更新日:2021-12-06